Hill Air Force Base
KHIF : now visible

Airfield :











YOU CAN JOIN US ON...

 
LOGIN :

Register | Disclaimer

   EN    FR    IT 

 









Legend :    VFR   Marginal VFR   IFR   Intensive IFR   Very Intensive IFR
Visi :
Ceiling :
>= 8 km
>= 3000ft
5 to 8 km
1000 to 3000 ft
1500m to 5 km
500 to 1000 ft
800 to 1500m
200 to 500 ft
< 800m
< 200 ft
Symbols :   Thunderstorms  Fog  Heavy snow  Heavy precipitations  Wind > 20 kt






- Airport Elevation : 4789 ft


KHIF - Hill Air Force Base

CURRENT METAR :
  • 240058Z AUTO 32005KT 10SM FEW060 BKN080 OVC100 01/M03 A2993 RMK AO2 SLP148 T00071030

EXPIRED METARs :
  • 240008Z AUTO 33004KT 10SM SCT017 02/M03 A2991 RMK AO2 SLP137
  • 232358Z AUTO 35003KT 10SM BKN018 BKN110 02/M02 A2991 RMK AO2 CIG 018V100 CIG 017 RWY32 SLP137 60000 T00221025 10035 20017 53005
  • 232258Z AUTO 00000KT 10SM OVC080 03/M02 A2989 RMK AO2 SLP127 T00321017
  • 232158Z 16004KT 10SM SCT065 OVC080 03/M01 A2988 RMK AO2A SNB2058E16 SLP123 P0000 T00291013

TAF TAF KHIF
Valid from the 23 at 22:00 until the 25 at 04:00 UTC


232200Z 2322/2504 34009KT 9999 VCSH BKN060 OVC100 610609 QNH2985INS
TEMPO 2323/2401 8000 -SHSN BKN040 610509
BECMG 2402/2403 10009KT 9999 NSW FEW050 SCT150 QNH2995INS
BECMG 2414/2415 29006KT 9999 FEW150 QNH2999INS TX03/2322Z TNM04/2413Z
KZLC FIR / North America



MET'MAP, your aeronautical weather chart ! - Copyright ORBIFLY December 2007 - Disclaimer

ORBIFLY MET'MAP TEAM :

Programming & Development : Alexandra Zaïnal
Concept & original design : Baudouin d'Aumeries
Assistance for programming : Marc-Olivier Méhu
Technical & hardware support : Manuel Goepfert

Contact : metmap@orbifly.com




SOURCES & CREDITS :

   NOAA       Earth
Advisory